sensor_id;sensor_type;location;lat;lon;timestamp;pressure;altitude;pressure_sealevel;temperature;humidity
69219;BME280;56232;53.384;-2.732;2023-03-26T00:01:30;99830.67;;;6.23;37.72
69219;BME280;56232;53.384;-2.732;2023-03-26T00:03:55;99825.03;;;6.10;37.84
69219;BME280;56232;53.384;-2.732;2023-03-26T00:06:21;99824.39;;;6.08;37.78
69219;BME280;56232;53.384;-2.732;2023-03-26T00:08:45;99821.94;;;6.64;37.77
69219;BME280;56232;53.384;-2.732;2023-03-26T00:11:12;99825.42;;;6.95;37.88
69219;BME280;56232;53.384;-2.732;2023-03-26T00:13:36;99827.10;;;6.43;37.98
69219;BME280;56232;53.384;-2.732;2023-03-26T00:16:02;99825.18;;;6.97;37.83
69219;BME280;56232;53.384;-2.732;2023-03-26T00:18:28;99822.29;;;6.40;37.75
69219;BME280;56232;53.384;-2.732;2023-03-26T00:20:53;99822.37;;;6.70;37.89
69219;BME280;56232;53.384;-2.732;2023-03-26T00:23:19;99820.39;;;6.15;37.84
69219;BME280;56232;53.384;-2.732;2023-03-26T00:25:45;99822.78;;;6.61;37.95
69219;BME280;56232;53.384;-2.732;2023-03-26T00:28:10;99826.21;;;5.59;37.93
69219;BME280;56232;53.384;-2.732;2023-03-26T00:30:35;99825.92;;;6.78;37.84
69219;BME280;56232;53.384;-2.732;2023-03-26T00:33:01;99828.14;;;6.25;37.82
69219;BME280;56232;53.384;-2.732;2023-03-26T00:35:27;99828.46;;;6.19;37.89
69219;BME280;56232;53.384;-2.732;2023-03-26T00:37:52;99833.25;;;6.38;37.80
69219;BME280;56232;53.384;-2.732;2023-03-26T00:40:19;99834.41;;;6.71;37.58
69219;BME280;56232;53.384;-2.732;2023-03-26T00:42:44;99831.30;;;6.39;37.44
69219;BME280;56232;53.384;-2.732;2023-03-26T00:45:10;99836.76;;;6.64;37.34
69219;BME280;56232;53.384;-2.732;2023-03-26T00:47:36;99835.15;;;6.89;37.30
69219;BME280;56232;53.384;-2.732;2023-03-26T00:50:02;99834.31;;;7.60;37.12
69219;BME280;56232;53.384;-2.732;2023-03-26T00:52:26;99837.50;;;7.10;37.03
69219;BME280;56232;53.384;-2.732;2023-03-26T00:54:51;99841.03;;;7.79;37.02
69219;BME280;56232;53.384;-2.732;2023-03-26T00:57:18;99843.45;;;7.35;37.22
69219;BME280;56232;53.384;-2.732;2023-03-26T00:59:42;99841.62;;;7.21;36.95
69219;BME280;56232;53.384;-2.732;2023-03-26T01:02:11;99832.85;;;7.54;37.27
69219;BME280;56232;53.384;-2.732;2023-03-26T01:04:35;99836.57;;;6.73;37.35
69219;BME280;56232;53.384;-2.732;2023-03-26T01:07:00;99838.78;;;7.35;37.32
69219;BME280;56232;53.384;-2.732;2023-03-26T01:09:30;99836.00;;;6.72;37.39
69219;BME280;56232;53.384;-2.732;2023-03-26T01:11:49;99833.00;;;6.61;37.81
69219;BME280;56232;53.384;-2.732;2023-03-26T01:14:17;99829.14;;;7.59;37.68
69219;BME280;56232;53.384;-2.732;2023-03-26T01:16:43;99831.88;;;6.93;37.49
69219;BME280;56232;53.384;-2.732;2023-03-26T01:19:11;99832.19;;;6.15;37.65
69219;BME280;56232;53.384;-2.732;2023-03-26T01:21:34;99833.81;;;6.57;37.88
69219;BME280;56232;53.384;-2.732;2023-03-26T01:24:00;99834.51;;;6.70;38.42
69219;BME280;56232;53.384;-2.732;2023-03-26T01:28:54;99837.22;;;5.35;38.55
69219;BME280;56232;53.384;-2.732;2023-03-26T01:31:19;99835.41;;;5.87;38.48
69219;BME280;56232;53.384;-2.732;2023-03-26T01:33:45;99832.21;;;6.33;38.75
69219;BME280;56232;53.384;-2.732;2023-03-26T01:36:11;99827.52;;;6.03;38.87
69219;BME280;56232;53.384;-2.732;2023-03-26T01:38:36;99827.77;;;6.05;38.73
69219;BME280;56232;53.384;-2.732;2023-03-26T01:41:03;99828.54;;;5.95;38.78
69219;BME280;56232;53.384;-2.732;2023-03-26T01:43:28;99826.07;;;5.97;38.79
69219;BME280;56232;53.384;-2.732;2023-03-26T01:45:50;99822.15;;;7.10;38.79
69219;BME280;56232;53.384;-2.732;2023-03-26T01:48:15;99820.85;;;6.36;39.26
69219;BME280;56232;53.384;-2.732;2023-03-26T01:50:40;99822.71;;;6.33;39.14
69219;BME280;56232;53.384;-2.732;2023-03-26T01:53:06;99823.16;;;6.29;39.14
69219;BME280;56232;53.384;-2.732;2023-03-26T01:55:40;99822.19;;;6.28;39.17
69219;BME280;56232;53.384;-2.732;2023-03-26T01:58:04;99817.91;;;5.90;38.91
69219;BME280;56232;53.384;-2.732;2023-03-26T02:00:26;99818.95;;;5.85;39.14
69219;BME280;56232;53.384;-2.732;2023-03-26T02:03:00;99821.56;;;5.72;39.38
69219;BME280;56232;53.384;-2.732;2023-03-26T02:05:17;99815.50;;;5.68;39.26
69219;BME280;56232;53.384;-2.732;2023-03-26T02:07:42;99817.43;;;5.64;39.25
69219;BME280;56232;53.384;-2.732;2023-03-26T02:10:08;99820.48;;;5.56;39.51
69219;BME280;56232;53.384;-2.732;2023-03-26T02:12:29;99817.31;;;5.96;39.53
69219;BME280;56232;53.384;-2.732;2023-03-26T02:14:54;99818.01;;;6.09;39.34
69219;BME280;56232;53.384;-2.732;2023-03-26T02:17:20;99818.39;;;5.99;39.55
69219;BME280;56232;53.384;-2.732;2023-03-26T02:19:46;99818.47;;;5.80;39.67
69219;BME280;56232;53.384;-2.732;2023-03-26T02:22:12;99817.75;;;5.24;39.63
69219;BME280;56232;53.384;-2.732;2023-03-26T02:24:37;99821.02;;;6.32;39.71
69219;BME280;56232;53.384;-2.732;2023-03-26T02:27:03;99821.35;;;5.74;39.62
69219;BME280;56232;53.384;-2.732;2023-03-26T02:29:29;99821.36;;;5.87;39.73
69219;BME280;56232;53.384;-2.732;2023-03-26T02:31:54;99818.57;;;5.45;39.53
69219;BME280;56232;53.384;-2.732;2023-03-26T02:34:20;99817.18;;;6.02;40.30
69219;BME280;56232;53.384;-2.732;2023-03-26T02:36:45;99813.21;;;5.81;40.09
69219;BME280;56232;53.384;-2.732;2023-03-26T02:39:11;99811.34;;;5.90;39.66
69219;BME280;56232;53.384;-2.732;2023-03-26T02:41:36;99808.44;;;5.57;39.77
69219;BME280;56232;53.384;-2.732;2023-03-26T02:44:01;99802.09;;;5.63;39.62
69219;BME280;56232;53.384;-2.732;2023-03-26T02:46:27;99804.13;;;6.13;40.19
69219;BME280;56232;53.384;-2.732;2023-03-26T02:48:52;99806.50;;;5.95;40.05
69219;BME280;56232;53.384;-2.732;2023-03-26T02:51:17;99804.88;;;5.91;40.39
69219;BME280;56232;53.384;-2.732;2023-03-26T02:53:43;99808.85;;;5.33;40.57
69219;BME280;56232;53.384;-2.732;2023-03-26T02:56:09;99810.26;;;6.64;40.50
69219;BME280;56232;53.384;-2.732;2023-03-26T02:58:34;99810.19;;;6.03;40.15
69219;BME280;56232;53.384;-2.732;2023-03-26T03:00:59;99813.40;;;5.61;40.42
69219;BME280;56232;53.384;-2.732;2023-03-26T03:03:26;99815.30;;;6.11;39.73
69219;BME280;56232;53.384;-2.732;2023-03-26T03:05:52;99811.28;;;6.18;39.75
69219;BME280;56232;53.384;-2.732;2023-03-26T03:08:16;99816.20;;;5.13;40.64
69219;BME280;56232;53.384;-2.732;2023-03-26T03:10:42;99816.15;;;5.60;40.14
69219;BME280;56232;53.384;-2.732;2023-03-26T03:13:07;99817.11;;;5.57;39.82
69219;BME280;56232;53.384;-2.732;2023-03-26T03:15:34;99817.76;;;6.28;40.26
69219;BME280;56232;53.384;-2.732;2023-03-26T03:17:58;99819.40;;;5.93;39.74
69219;BME280;56232;53.384;-2.732;2023-03-26T03:20:24;99818.53;;;5.92;39.89
69219;BME280;56232;53.384;-2.732;2023-03-26T03:22:49;99821.23;;;5.58;40.35
69219;BME280;56232;53.384;-2.732;2023-03-26T03:25:14;99818.95;;;5.72;40.05
69219;BME280;56232;53.384;-2.732;2023-03-26T03:27:40;99820.13;;;5.58;40.27
69219;BME280;56232;53.384;-2.732;2023-03-26T03:30:07;99821.18;;;6.13;40.12
69219;BME280;56232;53.384;-2.732;2023-03-26T03:32:30;99821.16;;;5.98;40.13
69219;BME280;56232;53.384;-2.732;2023-03-26T03:34:56;99816.71;;;6.70;40.26
69219;BME280;56232;53.384;-2.732;2023-03-26T03:37:21;99822.33;;;6.72;40.39
69219;BME280;56232;53.384;-2.732;2023-03-26T03:39:47;99825.53;;;5.57;40.43
69219;BME280;56232;53.384;-2.732;2023-03-26T03:42:13;99825.55;;;6.06;40.00
69219;BME280;56232;53.384;-2.732;2023-03-26T03:44:38;99827.18;;;5.53;40.11
69219;BME280;56232;53.384;-2.732;2023-03-26T03:47:03;99828.43;;;6.29;40.18
69219;BME280;56232;53.384;-2.732;2023-03-26T03:49:28;99825.64;;;6.13;39.99
69219;BME280;56232;53.384;-2.732;2023-03-26T03:51:54;99821.23;;;6.01;40.14
69219;BME280;56232;53.384;-2.732;2023-03-26T03:54:20;99817.00;;;6.71;40.11
69219;BME280;56232;53.384;-2.732;2023-03-26T03:56:46;99823.82;;;6.41;40.13
69219;BME280;56232;53.384;-2.732;2023-03-26T03:59:11;99821.12;;;6.18;40.81
69219;BME280;56232;53.384;-2.732;2023-03-26T04:01:37;99825.62;;;5.67;40.55
69219;BME280;56232;53.384;-2.732;2023-03-26T04:04:02;99826.16;;;6.15;40.95
69219;BME280;56232;53.384;-2.732;2023-03-26T04:06:28;99822.99;;;5.55;40.98
69219;BME280;56232;53.384;-2.732;2023-03-26T04:08:53;99827.23;;;5.88;40.93
69219;BME280;56232;53.384;-2.732;2023-03-26T04:11:19;99833.20;;;5.88;41.49
69219;BME280;56232;53.384;-2.732;2023-03-26T04:13:44;99831.79;;;5.94;40.95
69219;BME280;56232;53.384;-2.732;2023-03-26T04:16:10;99832.24;;;5.49;41.00
69219;BME280;56232;53.384;-2.732;2023-03-26T04:18:35;99829.88;;;6.19;40.73
69219;BME280;56232;53.384;-2.732;2023-03-26T04:21:01;99831.80;;;5.30;40.55
69219;BME280;56232;53.384;-2.732;2023-03-26T04:23:25;99832.08;;;6.15;40.70
69219;BME280;56232;53.384;-2.732;2023-03-26T04:25:52;99832.23;;;5.91;41.01
69219;BME280;56232;53.384;-2.732;2023-03-26T04:28:25;99839.13;;;5.42;40.87
69219;BME280;56232;53.384;-2.732;2023-03-26T04:30:42;99842.95;;;4.98;40.69
69219;BME280;56232;53.384;-2.732;2023-03-26T04:33:10;99844.73;;;6.05;40.65
69219;BME280;56232;53.384;-2.732;2023-03-26T04:35:34;99845.26;;;5.83;40.76
69219;BME280;56232;53.384;-2.732;2023-03-26T04:38:00;99848.92;;;5.73;41.53
69219;BME280;56232;53.384;-2.732;2023-03-26T04:40:25;99842.56;;;5.25;41.18
69219;BME280;56232;53.384;-2.732;2023-03-26T04:42:51;99845.03;;;5.97;41.04
69219;BME280;56232;53.384;-2.732;2023-03-26T04:45:17;99849.49;;;4.88;41.28
69219;BME280;56232;53.384;-2.732;2023-03-26T04:47:42;99855.81;;;6.05;40.99
69219;BME280;56232;53.384;-2.732;2023-03-26T04:50:09;99850.19;;;6.02;40.77
69219;BME280;56232;53.384;-2.732;2023-03-26T04:52:33;99853.65;;;5.23;41.03
69219;BME280;56232;53.384;-2.732;2023-03-26T04:54:59;99856.75;;;6.08;40.72
69219;BME280;56232;53.384;-2.732;2023-03-26T04:57:26;99861.00;;;5.42;40.70
69219;BME280;56232;53.384;-2.732;2023-03-26T04:59:49;99862.57;;;5.82;41.07
69219;BME280;56232;53.384;-2.732;2023-03-26T05:02:15;99865.33;;;5.79;41.12
69219;BME280;56232;53.384;-2.732;2023-03-26T05:04:40;99867.45;;;5.78;40.98
69219;BME280;56232;53.384;-2.732;2023-03-26T05:07:05;99873.09;;;6.16;41.10
69219;BME280;56232;53.384;-2.732;2023-03-26T05:09:31;99872.83;;;4.73;41.25
69219;BME280;56232;53.384;-2.732;2023-03-26T05:11:56;99876.12;;;5.43;41.44
69219;BME280;56232;53.384;-2.732;2023-03-26T05:14:22;99879.49;;;5.64;40.95
69219;BME280;56232;53.384;-2.732;2023-03-26T05:16:48;99882.03;;;5.54;41.06
69219;BME280;56232;53.384;-2.732;2023-03-26T05:19:13;99885.17;;;5.55;40.88
69219;BME280;56232;53.384;-2.732;2023-03-26T05:21:38;99892.19;;;5.49;41.07
69219;BME280;56232;53.384;-2.732;2023-03-26T05:24:04;99897.60;;;5.60;40.92
69219;BME280;56232;53.384;-2.732;2023-03-26T05:26:29;99902.79;;;5.60;40.84
69219;BME280;56232;53.384;-2.732;2023-03-26T05:28:54;99901.36;;;5.16;41.28
69219;BME280;56232;53.384;-2.732;2023-03-26T05:31:20;99906.42;;;5.57;41.21
69219;BME280;56232;53.384;-2.732;2023-03-26T05:33:45;99909.74;;;5.04;41.24
69219;BME280;56232;53.384;-2.732;2023-03-26T05:36:11;99912.99;;;4.90;41.56
69219;BME280;56232;53.384;-2.732;2023-03-26T05:38:36;99915.26;;;5.12;41.29
69219;BME280;56232;53.384;-2.732;2023-03-26T05:41:03;99926.19;;;5.01;41.50
69219;BME280;56232;53.384;-2.732;2023-03-26T05:43:28;99924.84;;;5.20;41.36
69219;BME280;56232;53.384;-2.732;2023-03-26T05:45:53;99930.06;;;4.87;40.69
69219;BME280;56232;53.384;-2.732;2023-03-26T05:48:19;99934.64;;;4.80;40.61
69219;BME280;56232;53.384;-2.732;2023-03-26T05:50:46;99935.53;;;5.31;40.84
69219;BME280;56232;53.384;-2.732;2023-03-26T05:53:10;99940.90;;;4.78;40.85
69219;BME280;56232;53.384;-2.732;2023-03-26T05:55:35;99943.95;;;6.58;40.61
69219;BME280;56232;53.384;-2.732;2023-03-26T05:58:01;99947.98;;;5.35;40.66
69219;BME280;56232;53.384;-2.732;2023-03-26T06:00:26;99952.26;;;5.25;40.72
69219;BME280;56232;53.384;-2.732;2023-03-26T06:02:57;99952.94;;;5.20;40.78
69219;BME280;56232;53.384;-2.732;2023-03-26T06:05:17;99961.36;;;5.53;40.75
69219;BME280;56232;53.384;-2.732;2023-03-26T06:07:43;99965.79;;;5.70;40.66
69219;BME280;56232;53.384;-2.732;2023-03-26T06:10:09;99970.86;;;5.37;40.41
69219;BME280;56232;53.384;-2.732;2023-03-26T06:12:34;99974.36;;;5.51;40.21
69219;BME280;56232;53.384;-2.732;2023-03-26T06:15:00;99976.43;;;5.58;40.27
69219;BME280;56232;53.384;-2.732;2023-03-26T06:17:25;99981.95;;;5.63;40.25
69219;BME280;56232;53.384;-2.732;2023-03-26T06:19:51;99984.89;;;5.60;40.10
69219;BME280;56232;53.384;-2.732;2023-03-26T06:22:17;99985.60;;;5.55;40.11
69219;BME280;56232;53.384;-2.732;2023-03-26T06:24:43;99989.21;;;5.50;40.01
69219;BME280;56232;53.384;-2.732;2023-03-26T06:27:08;99996.60;;;5.45;40.18
69219;BME280;56232;53.384;-2.732;2023-03-26T06:29:34;100001.24;;;6.13;39.99
69219;BME280;56232;53.384;-2.732;2023-03-26T06:32:00;100003.84;;;5.06;39.87
69219;BME280;56232;53.384;-2.732;2023-03-26T06:34:26;100008.44;;;4.95;39.82
69219;BME280;56232;53.384;-2.732;2023-03-26T06:36:51;100013.81;;;4.91;40.12
69219;BME280;56232;53.384;-2.732;2023-03-26T06:39:17;100017.05;;;5.91;39.62
69219;BME280;56232;53.384;-2.732;2023-03-26T06:41:43;100021.60;;;5.96;39.51
69219;BME280;56232;53.384;-2.732;2023-03-26T06:44:09;100026.54;;;4.96;39.41
69219;BME280;56232;53.384;-2.732;2023-03-26T06:46:35;100029.78;;;5.58;39.34
69219;BME280;56232;53.384;-2.732;2023-03-26T06:49:00;100034.52;;;6.13;39.22
69219;BME280;56232;53.384;-2.732;2023-03-26T06:51:27;100037.18;;;6.03;39.25
69219;BME280;56232;53.384;-2.732;2023-03-26T06:53:52;100038.85;;;5.63;39.31
69219;BME280;56232;53.384;-2.732;2023-03-26T06:56:17;100040.65;;;5.65;39.07
69219;BME280;56232;53.384;-2.732;2023-03-26T06:58:43;100048.14;;;5.14;39.08
69219;BME280;56232;53.384;-2.732;2023-03-26T07:01:09;100056.41;;;5.75;38.83
69219;BME280;56232;53.384;-2.732;2023-03-26T07:03:35;100058.40;;;5.61;38.90
69219;BME280;56232;53.384;-2.732;2023-03-26T07:06:00;100066.37;;;5.52;39.07
69219;BME280;56232;53.384;-2.732;2023-03-26T07:08:26;100069.70;;;6.31;38.91
69219;BME280;56232;53.384;-2.732;2023-03-26T07:10:51;100074.18;;;5.82;38.89
69219;BME280;56232;53.384;-2.732;2023-03-26T07:13:17;100078.70;;;6.66;38.56
69219;BME280;56232;53.384;-2.732;2023-03-26T07:15:48;100084.62;;;6.09;38.56
69219;BME280;56232;53.384;-2.732;2023-03-26T07:18:08;100086.39;;;5.70;38.57
69219;BME280;56232;53.384;-2.732;2023-03-26T07:20:35;100094.81;;;6.96;38.17
69219;BME280;56232;53.384;-2.732;2023-03-26T07:23:00;100100.05;;;6.35;38.13
69219;BME280;56232;53.384;-2.732;2023-03-26T07:25:26;100107.77;;;5.92;38.03
69219;BME280;56232;53.384;-2.732;2023-03-26T07:27:58;100116.11;;;6.04;38.08
69219;BME280;56232;53.384;-2.732;2023-03-26T07:30:23;100124.57;;;6.31;37.85
69219;BME280;56232;53.384;-2.732;2023-03-26T07:32:49;100134.03;;;7.54;37.75
69219;BME280;56232;53.384;-2.732;2023-03-26T07:35:13;100139.34;;;6.57;37.39
69219;BME280;56232;53.384;-2.732;2023-03-26T07:37:42;100148.72;;;6.98;37.45
69219;BME280;56232;53.384;-2.732;2023-03-26T07:40:04;100153.73;;;6.50;37.42
69219;BME280;56232;53.384;-2.732;2023-03-26T07:42:36;100161.22;;;7.19;37.75
69219;BME280;56232;53.384;-2.732;2023-03-26T07:44:56;100166.39;;;7.17;37.52
69219;BME280;56232;53.384;-2.732;2023-03-26T07:47:23;100167.11;;;7.33;37.52
69219;BME280;56232;53.384;-2.732;2023-03-26T07:49:43;100175.05;;;6.85;37.61
69219;BME280;56232;53.384;-2.732;2023-03-26T07:52:09;100183.08;;;7.63;37.39
69219;BME280;56232;53.384;-2.732;2023-03-26T07:54:35;100186.67;;;6.28;37.06
69219;BME280;56232;53.384;-2.732;2023-03-26T07:57:04;100193.45;;;6.64;36.75
69219;BME280;56232;53.384;-2.732;2023-03-26T07:59:28;100197.14;;;6.69;36.63
69219;BME280;56232;53.384;-2.732;2023-03-26T08:02:01;100200.08;;;7.11;36.14
69219;BME280;56232;53.384;-2.732;2023-03-26T08:04:28;100209.53;;;7.84;35.74
69219;BME280;56232;53.384;-2.732;2023-03-26T08:06:48;100213.70;;;6.98;36.05
69219;BME280;56232;53.384;-2.732;2023-03-26T08:09:14;100219.39;;;7.05;36.53
69219;BME280;56232;53.384;-2.732;2023-03-26T08:11:43;100222.22;;;7.33;36.31
69219;BME280;56232;53.384;-2.732;2023-03-26T08:14:08;100229.45;;;6.62;36.50
69219;BME280;56232;53.384;-2.732;2023-03-26T08:16:31;100233.13;;;7.24;36.24
69219;BME280;56232;53.384;-2.732;2023-03-26T08:18:55;100234.40;;;8.16;35.83
69219;BME280;56232;53.384;-2.732;2023-03-26T08:21:21;100232.72;;;9.69;34.53
69219;BME280;56232;53.384;-2.732;2023-03-26T08:23:52;100239.21;;;11.72;32.50
69219;BME280;56232;53.384;-2.732;2023-03-26T08:26:13;100237.27;;;11.58;31.47
69219;BME280;56232;53.384;-2.732;2023-03-26T08:28:39;100244.44;;;13.78;29.62
69219;BME280;56232;53.384;-2.732;2023-03-26T08:30:59;100244.40;;;12.64;30.13
69219;BME280;56232;53.384;-2.732;2023-03-26T08:33:26;100252.85;;;12.17;30.72
69219;BME280;56232;53.384;-2.732;2023-03-26T08:35:50;100258.23;;;10.06;32.35
69219;BME280;56232;53.384;-2.732;2023-03-26T08:38:18;100256.95;;;8.35;33.49
69219;BME280;56232;53.384;-2.732;2023-03-26T08:45:47;100268.46;;;10.01;32.60
69219;BME280;56232;53.384;-2.732;2023-03-26T08:48:09;100275.26;;;11.44;30.90
69219;BME280;56232;53.384;-2.732;2023-03-26T08:50:39;100270.27;;;12.94;30.29
69219;BME280;56232;53.384;-2.732;2023-03-26T08:52:59;100275.03;;;15.71;28.92
69219;BME280;56232;53.384;-2.732;2023-03-26T08:55:26;100284.01;;;15.90;27.33
69219;BME280;56232;53.384;-2.732;2023-03-26T09:00:20;100283.25;;;17.98;25.64
69219;BME280;56232;53.384;-2.732;2023-03-26T09:02:45;100293.85;;;17.76;24.05
69219;BME280;56232;53.384;-2.732;2023-03-26T09:07:37;100307.82;;;17.99;23.09
69219;BME280;56232;53.384;-2.732;2023-03-26T09:12:36;100318.46;;;15.76;25.89
69219;BME280;56232;53.384;-2.732;2023-03-26T09:17:17;100330.91;;;14.73;27.20
69219;BME280;56232;53.384;-2.732;2023-03-26T09:26:59;100361.31;;;16.43;25.06
69219;BME280;56232;53.384;-2.732;2023-03-26T09:36:45;100371.94;;;17.18;24.16
69219;BME280;56232;53.384;-2.732;2023-03-26T09:39:05;100381.18;;;17.43;25.60
69219;BME280;56232;53.384;-2.732;2023-03-26T09:41:34;100386.03;;;16.59;23.70
69219;BME280;56232;53.384;-2.732;2023-03-26T09:46:24;100382.60;;;17.05;23.90
69219;BME280;56232;53.384;-2.732;2023-03-26T09:51:16;100402.51;;;18.06;24.71
69219;BME280;56232;53.384;-2.732;2023-03-26T09:53:46;100403.41;;;18.35;23.40
69219;BME280;56232;53.384;-2.732;2023-03-26T09:56:03;100409.20;;;19.21;23.66
69219;BME280;56232;53.384;-2.732;2023-03-26T10:00:52;100417.56;;;19.07;22.14
69219;BME280;56232;53.384;-2.732;2023-03-26T10:03:25;100431.71;;;20.06;22.34
69219;BME280;56232;53.384;-2.732;2023-03-26T10:05:46;100436.60;;;19.64;21.27
69219;BME280;56232;53.384;-2.732;2023-03-26T10:08:16;100447.33;;;18.81;21.14
69219;BME280;56232;53.384;-2.732;2023-03-26T10:10:37;100452.60;;;19.84;21.55
69219;BME280;56232;53.384;-2.732;2023-03-26T10:13:00;100452.09;;;19.57;21.18
69219;BME280;56232;53.384;-2.732;2023-03-26T10:15:29;100457.26;;;18.04;23.00
69219;BME280;56232;53.384;-2.732;2023-03-26T10:17:55;100463.45;;;17.83;25.32
69219;BME280;56232;53.384;-2.732;2023-03-26T10:20:24;100467.27;;;17.36;25.85
69219;BME280;56232;53.384;-2.732;2023-03-26T10:22:47;100473.77;;;17.81;25.78
69219;BME280;56232;53.384;-2.732;2023-03-26T10:25:15;100486.37;;;17.25;25.42
69219;BME280;56232;53.384;-2.732;2023-03-26T10:27:38;100487.07;;;17.33;26.01
69219;BME280;56232;53.384;-2.732;2023-03-26T10:32:27;100501.46;;;16.85;26.15
69219;BME280;56232;53.384;-2.732;2023-03-26T10:34:55;100503.37;;;16.83;27.51
69219;BME280;56232;53.384;-2.732;2023-03-26T10:37:19;100516.41;;;14.97;28.04
69219;BME280;56232;53.384;-2.732;2023-03-26T10:39:48;100526.98;;;14.81;30.38
69219;BME280;56232;53.384;-2.732;2023-03-26T10:42:15;100532.92;;;12.40;28.90
69219;BME280;56232;53.384;-2.732;2023-03-26T10:44:40;100538.90;;;12.54;29.83
69219;BME280;56232;53.384;-2.732;2023-03-26T10:47:04;100546.90;;;11.97;30.96
69219;BME280;56232;53.384;-2.732;2023-03-26T10:49:28;100554.97;;;12.67;32.23
69219;BME280;56232;53.384;-2.732;2023-03-26T10:51:46;100558.45;;;12.35;30.84
69219;BME280;56232;53.384;-2.732;2023-03-26T10:54:20;100566.15;;;12.55;30.58
69219;BME280;56232;53.384;-2.732;2023-03-26T10:56:40;100568.84;;;13.48;30.64
69219;BME280;56232;53.384;-2.732;2023-03-26T10:59:06;100573.26;;;13.26;31.83
69219;BME280;56232;53.384;-2.732;2023-03-26T11:01:38;100568.38;;;14.25;30.34
69219;BME280;56232;53.384;-2.732;2023-03-26T11:03:55;100576.55;;;13.86;32.08
69219;BME280;56232;53.384;-2.732;2023-03-26T11:06:30;100585.96;;;13.08;30.54
69219;BME280;56232;53.384;-2.732;2023-03-26T11:08:50;100582.27;;;13.18;31.59
69219;BME280;56232;53.384;-2.732;2023-03-26T11:11:19;100591.41;;;13.28;31.70
69219;BME280;56232;53.384;-2.732;2023-03-26T11:13:44;100591.11;;;13.17;31.60
69219;BME280;56232;53.384;-2.732;2023-03-26T11:16:04;100597.62;;;13.79;32.24
69219;BME280;56232;53.384;-2.732;2023-03-26T11:18:36;100599.93;;;13.99;31.61
69219;BME280;56232;53.384;-2.732;2023-03-26T11:21:00;100601.37;;;13.69;31.86
69219;BME280;56232;53.384;-2.732;2023-03-26T11:23:29;100606.91;;;14.17;32.17
69219;BME280;56232;53.384;-2.732;2023-03-26T11:28:21;100616.61;;;14.23;30.81
69219;BME280;56232;53.384;-2.732;2023-03-26T11:30:42;100621.71;;;13.75;29.62
69219;BME280;56232;53.384;-2.732;2023-03-26T11:33:06;100629.71;;;13.34;32.41
69219;BME280;56232;53.384;-2.732;2023-03-26T11:35:29;100633.80;;;13.07;32.97
69219;BME280;56232;53.384;-2.732;2023-03-26T11:37:55;100643.90;;;13.76;31.87
69219;BME280;56232;53.384;-2.732;2023-03-26T11:40:24;100644.69;;;13.07;32.37
69219;BME280;56232;53.384;-2.732;2023-03-26T11:42:45;100651.79;;;13.06;31.17
69219;BME280;56232;53.384;-2.732;2023-03-26T11:45:15;100659.78;;;13.39;31.43
69219;BME280;56232;53.384;-2.732;2023-03-26T11:47:41;100659.42;;;13.25;30.05
69219;BME280;56232;53.384;-2.732;2023-03-26T11:50:03;100660.75;;;12.95;32.21
69219;BME280;56232;53.384;-2.732;2023-03-26T11:52:27;100664.37;;;13.63;29.27
69219;BME280;56232;53.384;-2.732;2023-03-26T11:54:53;100666.65;;;13.48;28.95
69219;BME280;56232;53.384;-2.732;2023-03-26T11:57:28;100674.26;;;14.63;30.19
69219;BME280;56232;53.384;-2.732;2023-03-26T11:59:49;100686.34;;;14.91;29.31
69219;BME280;56232;53.384;-2.732;2023-03-26T12:02:16;100690.61;;;13.82;29.22
69219;BME280;56232;53.384;-2.732;2023-03-26T12:04:38;100698.47;;;13.33;30.98
69219;BME280;56232;53.384;-2.732;2023-03-26T12:07:07;100703.71;;;13.73;29.46
69219;BME280;56232;53.384;-2.732;2023-03-26T12:09:27;100712.63;;;14.16;31.34
69219;BME280;56232;53.384;-2.732;2023-03-26T12:11:59;100714.58;;;13.50;31.78
69219;BME280;56232;53.384;-2.732;2023-03-26T12:14:21;100717.29;;;13.33;32.49
69219;BME280;56232;53.384;-2.732;2023-03-26T12:19:17;100728.29;;;14.15;31.91
69219;BME280;56232;53.384;-2.732;2023-03-26T12:21:44;100736.47;;;14.17;30.78
69219;BME280;56232;53.384;-2.732;2023-03-26T12:24:02;100733.43;;;13.98;32.43
69219;BME280;56232;53.384;-2.732;2023-03-26T12:26:33;100740.18;;;13.52;32.66
69219;BME280;56232;53.384;-2.732;2023-03-26T12:28:52;100740.91;;;13.52;32.13
69219;BME280;56232;53.384;-2.732;2023-03-26T12:31:18;100749.20;;;13.03;29.95
69219;BME280;56232;53.384;-2.732;2023-03-26T12:33:50;100751.47;;;13.08;30.79
69219;BME280;56232;53.384;-2.732;2023-03-26T12:36:15;100755.52;;;12.62;31.53
69219;BME280;56232;53.384;-2.732;2023-03-26T12:38:35;100755.42;;;12.49;32.26
69219;BME280;56232;53.384;-2.732;2023-03-26T12:41:04;100766.08;;;12.29;32.43
69219;BME280;56232;53.384;-2.732;2023-03-26T12:43:29;100769.85;;;12.73;32.45
69219;BME280;56232;53.384;-2.732;2023-03-26T12:45:55;100771.39;;;12.05;31.39
69219;BME280;56232;53.384;-2.732;2023-03-26T12:48:18;100779.35;;;12.70;33.02
69219;BME280;56232;53.384;-2.732;2023-03-26T12:50:53;100780.24;;;12.38;31.04
69219;BME280;56232;53.384;-2.732;2023-03-26T12:53:27;100784.97;;;12.55;31.86
69219;BME280;56232;53.384;-2.732;2023-03-26T12:55:41;100785.31;;;13.22;32.66
69219;BME280;56232;53.384;-2.732;2023-03-26T12:58:09;100789.74;;;13.75;31.97
69219;BME280;56232;53.384;-2.732;2023-03-26T13:00:35;100795.47;;;14.02;31.75
69219;BME280;56232;53.384;-2.732;2023-03-26T13:05:28;100799.72;;;14.71;31.04
69219;BME280;56232;53.384;-2.732;2023-03-26T13:07:54;100797.67;;;13.86;29.98
69219;BME280;56232;53.384;-2.732;2023-03-26T13:12:42;100802.42;;;14.27;30.40
69219;BME280;56232;53.384;-2.732;2023-03-26T13:15:14;100803.40;;;13.75;30.63
69219;BME280;56232;53.384;-2.732;2023-03-26T13:17:32;100802.75;;;14.18;30.20
69219;BME280;56232;53.384;-2.732;2023-03-26T13:20:00;100801.36;;;14.54;30.00
69219;BME280;56232;53.384;-2.732;2023-03-26T13:22:23;100807.91;;;14.35;30.69
69219;BME280;56232;53.384;-2.732;2023-03-26T13:24:49;100811.34;;;14.09;30.62
69219;BME280;56232;53.384;-2.732;2023-03-26T13:27:21;100817.02;;;14.89;30.01
69219;BME280;56232;53.384;-2.732;2023-03-26T13:29:39;100818.12;;;15.75;29.63
69219;BME280;56232;53.384;-2.732;2023-03-26T13:32:05;100823.11;;;15.88;29.01
69219;BME280;56232;53.384;-2.732;2023-03-26T13:34:31;100824.26;;;14.75;29.05